createdAt,value
2018-09-11T00:03:15.734Z,10.23
2018-09-11T00:08:19.349Z,10.87
2018-09-11T00:13:22.975Z,9.60
2018-09-11T00:18:33.401Z,11.57
2018-09-11T00:23:36.979Z,11.97
2018-09-11T00:28:40.584Z,10.90
2018-09-11T00:33:44.225Z,10.30
2018-09-11T00:38:48.062Z,8.53
2018-09-11T00:43:51.897Z,9.37
2018-09-11T00:48:55.443Z,8.33
2018-09-11T00:54:02.360Z,8.73
2018-09-11T00:59:06.278Z,8.23
2018-09-11T01:04:09.901Z,7.33
2018-09-11T01:09:13.651Z,7.67
2018-09-11T01:14:17.281Z,7.53
2018-09-11T01:19:21.086Z,8.50
2018-09-11T01:24:24.765Z,8.27
2018-09-11T01:29:28.751Z,9.53
2018-09-11T01:34:32.519Z,9.00
2018-09-11T01:39:36.172Z,7.60
2018-09-11T01:44:39.768Z,8.33
2018-09-11T01:49:43.626Z,9.90
2018-09-11T01:54:47.177Z,9.23
2018-09-11T01:59:50.960Z,9.50
2018-09-11T02:04:55.084Z,11.33
2018-09-11T02:09:58.901Z,10.03
2018-09-11T02:15:02.576Z,12.23
2018-09-11T02:20:06.252Z,11.33
2018-09-11T02:25:10.013Z,11.87
2018-09-11T02:30:15.313Z,13.13
2018-09-11T02:35:18.871Z,11.70
2018-09-11T02:40:22.469Z,11.77
2018-09-11T02:45:26.278Z,12.00
2018-09-11T02:50:29.873Z,11.90
2018-09-11T02:55:33.427Z,12.00
2018-09-11T03:00:37.220Z,13.30
2018-09-11T03:05:40.829Z,9.63
2018-09-11T03:10:44.372Z,9.13
2018-09-11T03:15:47.906Z,8.80
2018-09-11T03:20:51.805Z,8.20
2018-09-11T03:25:55.401Z,7.97
2018-09-11T03:30:58.933Z,7.17
2018-09-11T03:36:02.533Z,5.73
2018-09-11T03:41:06.175Z,5.87
2018-09-11T03:46:09.830Z,5.93
2018-09-11T03:51:13.532Z,5.40
2018-09-11T03:56:17.077Z,4.83
2018-09-11T04:01:20.867Z,5.97
2018-09-11T04:06:24.366Z,5.50
2018-09-11T04:11:27.983Z,4.63
2018-09-11T04:16:31.500Z,5.20
2018-09-11T04:21:35.089Z,5.03
2018-09-11T04:26:38.669Z,5.53
2018-09-11T04:31:42.269Z,4.53
2018-09-11T04:36:45.779Z,5.30
2018-09-11T04:41:49.336Z,4.43
2018-09-11T04:46:52.999Z,4.57
2018-09-11T04:51:56.618Z,5.00
2018-09-11T04:57:00.242Z,4.43
2018-09-11T05:02:03.987Z,3.90
2018-09-11T05:07:08.129Z,4.00
2018-09-11T05:12:12.036Z,3.23
2018-09-11T05:17:15.626Z,3.33
2018-09-11T05:22:19.136Z,9.63
2018-09-11T05:27:22.754Z,3.80
2018-09-11T05:32:26.332Z,2.73
2018-09-11T05:37:29.893Z,2.73
2018-09-11T05:42:33.500Z,3.57
2018-09-11T05:47:37.210Z,4.20
2018-09-11T05:52:41.257Z,3.47
2018-09-11T05:57:44.824Z,3.30
2018-09-11T06:02:48.894Z,3.33
2018-09-11T06:07:52.449Z,3.03
2018-09-11T06:12:56.194Z,3.33
2018-09-11T06:17:59.819Z,3.80
2018-09-11T06:23:03.709Z,4.17
2018-09-11T06:28:07.395Z,3.37
2018-09-11T06:33:11.181Z,3.90
2018-09-11T06:38:15.596Z,4.13
2018-09-11T06:43:19.249Z,3.17
2018-09-11T06:48:22.869Z,3.80
2018-09-11T06:53:28.874Z,4.33
2018-09-11T06:58:32.368Z,4.37
2018-09-11T07:03:36.002Z,4.67
2018-09-11T07:08:39.775Z,4.13
2018-09-11T07:13:43.350Z,4.03
2018-09-11T07:18:47.126Z,4.70
2018-09-11T07:23:50.762Z,4.87
2018-09-11T07:28:54.339Z,5.07
2018-09-11T07:33:57.921Z,4.13
2018-09-11T07:39:01.495Z,3.47
2018-09-11T07:44:05.108Z,4.53
2018-09-11T07:49:08.782Z,2.87
2018-09-11T07:54:12.421Z,3.63
2018-09-11T07:59:15.929Z,3.90
2018-09-11T08:04:19.714Z,3.07
2018-09-11T08:09:23.263Z,3.30
2018-09-11T08:14:28.706Z,3.03
2018-09-11T08:19:32.348Z,2.60
2018-09-11T08:24:35.911Z,2.00
2018-09-11T08:29:39.477Z,1.73
2018-09-11T08:34:43.037Z,1.60
2018-09-11T08:39:46.610Z,2.13
2018-09-11T08:44:50.183Z,2.30
2018-09-11T08:49:53.690Z,2.20
2018-09-11T08:54:57.597Z,1.83
2018-09-11T09:00:01.199Z,1.97
2018-09-11T09:05:04.770Z,1.87
2018-09-11T09:10:08.342Z,2.03
2018-09-11T09:15:12.174Z,1.53
2018-09-11T09:20:15.714Z,1.43
2018-09-11T09:25:19.345Z,1.63
2018-09-11T09:30:31.066Z,2.90
2018-09-11T09:35:34.747Z,2.17
2018-09-11T09:40:38.323Z,1.83
2018-09-11T09:45:41.875Z,1.50
2018-09-11T09:50:45.442Z,1.90
2018-09-11T09:55:48.984Z,1.83
2018-09-11T10:01:01.686Z,1.97
2018-09-11T10:06:05.443Z,2.43
2018-09-11T10:11:09.083Z,1.90
2018-09-11T10:16:12.962Z,1.80
2018-09-11T10:21:16.556Z,2.00
2018-09-11T10:26:20.393Z,1.90
2018-09-11T10:31:24.286Z,2.03
2018-09-11T10:36:27.913Z,2.03
2018-09-11T10:41:31.604Z,1.80
2018-09-11T10:46:35.256Z,1.80
2018-09-11T10:51:39.230Z,1.80
2018-09-11T10:56:43.021Z,1.73
2018-09-11T11:01:46.866Z,2.27
2018-09-11T11:06:50.830Z,1.97
2018-09-11T11:11:54.537Z,1.97
2018-09-11T11:16:58.264Z,1.73
2018-09-11T11:22:01.990Z,1.90
2018-09-11T11:27:05.718Z,1.57
2018-09-11T11:32:09.434Z,1.67
2018-09-11T11:37:13.358Z,1.53
2018-09-11T11:42:17.035Z,2.50
2018-09-11T11:47:21.234Z,2.53
2018-09-11T11:52:24.829Z,1.80
2018-09-11T11:57:28.517Z,1.70
2018-09-11T12:02:32.283Z,2.13
2018-09-11T12:07:35.873Z,2.37
2018-09-11T12:12:39.599Z,1.70
2018-09-11T12:17:43.338Z,1.93
2018-09-11T12:22:47.072Z,2.97
2018-09-11T12:27:50.745Z,2.30
2018-09-11T12:32:54.302Z,2.37
2018-09-11T12:37:57.867Z,2.10
2018-09-11T12:43:01.504Z,1.70
2018-09-11T12:48:05.754Z,2.13
2018-09-11T12:53:09.060Z,2.20
2018-09-11T12:58:12.661Z,2.30
2018-09-11T13:03:16.510Z,2.07
2018-09-11T13:08:20.168Z,2.40
2018-09-11T13:13:23.716Z,1.77
2018-09-11T13:18:27.317Z,2.80
2018-09-11T13:23:31.052Z,2.10
2018-09-11T13:28:34.692Z,2.53
2018-09-11T13:33:38.241Z,1.87
2018-09-11T13:38:41.808Z,2.43
2018-09-11T13:43:45.373Z,2.20
2018-09-11T13:48:48.909Z,2.30
2018-09-11T13:53:54.791Z,2.20
2018-09-11T13:59:02.357Z,2.40
2018-09-11T14:04:06.163Z,2.20
2018-09-11T14:09:12.331Z,2.00
2018-09-11T14:14:16.254Z,1.97
2018-09-11T14:19:20.001Z,2.60
2018-09-11T14:24:23.900Z,2.30
2018-09-11T14:29:32.968Z,1.83
2018-09-11T14:34:36.604Z,2.57
2018-09-11T14:39:40.408Z,2.60
2018-09-11T14:44:44.080Z,2.47
2018-09-11T14:49:47.780Z,2.23
2018-09-11T14:54:51.483Z,2.10
2018-09-11T14:59:55.199Z,2.47
2018-09-11T15:04:58.916Z,2.90
2018-09-11T15:10:02.665Z,2.83
2018-09-11T15:15:06.318Z,2.20
2018-09-11T15:20:10.047Z,2.90
2018-09-11T15:25:13.697Z,2.30
2018-09-11T15:30:25.502Z,2.70
2018-09-11T15:35:29.062Z,2.60
2018-09-11T15:40:32.660Z,2.00
2018-09-11T15:45:36.433Z,2.43
2018-09-11T15:50:40.268Z,2.30
2018-09-11T15:55:44.000Z,2.13
2018-09-11T16:00:47.597Z,2.53
2018-09-11T16:05:51.370Z,1.80
2018-09-11T16:10:55.075Z,2.23
2018-09-11T16:15:58.659Z,2.53
2018-09-11T16:21:02.380Z,2.60
2018-09-11T16:26:06.021Z,2.73
2018-09-11T16:31:09.635Z,3.17
2018-09-11T16:36:13.279Z,2.37
2018-09-11T16:41:17.194Z,2.73
2018-09-11T16:46:20.915Z,2.43
2018-09-11T16:51:24.600Z,2.43
2018-09-11T16:56:28.124Z,2.33
2018-09-11T17:01:32.581Z,2.27
2018-09-11T17:06:36.266Z,2.10
2018-09-11T17:11:39.918Z,2.13
2018-09-11T17:16:43.694Z,2.30
2018-09-11T17:21:47.379Z,2.53
2018-09-11T17:26:51.092Z,2.93
2018-09-11T17:31:54.651Z,2.37
2018-09-11T17:36:58.403Z,2.23
2018-09-11T17:42:02.014Z,2.50
2018-09-11T17:47:07.166Z,2.63
2018-09-11T17:52:10.715Z,1.97
2018-09-11T17:57:14.491Z,2.12
2018-09-11T18:02:18.539Z,2.47
2018-09-11T18:07:22.830Z,2.30
2018-09-11T18:12:26.499Z,2.00
2018-09-11T18:17:29.998Z,2.17
2018-09-11T18:22:33.617Z,2.03
2018-09-11T18:27:37.533Z,2.67
2018-09-11T18:32:41.063Z,2.57
2018-09-11T18:37:44.705Z,2.27
2018-09-11T18:42:48.343Z,1.80
2018-09-11T18:47:51.972Z,2.67
2018-09-11T18:52:55.599Z,2.70
2018-09-11T18:57:59.389Z,2.20
2018-09-11T19:03:03.559Z,2.60
2018-09-11T19:08:07.405Z,3.67
2018-09-11T19:13:11.293Z,2.43
2018-09-11T19:18:15.060Z,2.90
2018-09-11T19:23:18.607Z,2.23
2018-09-11T19:28:22.345Z,3.33
2018-09-11T19:33:25.943Z,3.00
2018-09-11T19:38:29.480Z,2.60
2018-09-11T19:43:33.053Z,3.00
2018-09-11T19:48:36.628Z,2.37
2018-09-11T19:53:40.216Z,2.23
2018-09-11T19:58:43.822Z,2.83
2018-09-11T20:03:47.683Z,2.43
2018-09-11T20:08:51.307Z,2.43
2018-09-11T20:13:54.963Z,2.20
2018-09-11T20:18:58.540Z,2.90
2018-09-11T20:24:02.392Z,2.00
2018-09-11T20:29:05.979Z,2.50
2018-09-11T20:34:09.771Z,2.70
2018-09-11T20:39:13.696Z,2.67
2018-09-11T20:44:18.835Z,2.60
2018-09-11T20:49:22.406Z,2.47
2018-09-11T20:54:25.998Z,3.23
2018-09-11T20:59:29.566Z,2.90
2018-09-11T21:04:33.184Z,3.17
2018-09-11T21:09:37.030Z,3.17
2018-09-11T21:14:40.770Z,2.93
2018-09-11T21:19:44.377Z,2.80
2018-09-11T21:24:47.997Z,3.57
2018-09-11T21:29:51.535Z,2.23
2018-09-11T21:34:55.503Z,2.63
2018-09-11T21:39:59.268Z,2.80
2018-09-11T21:45:02.834Z,2.90
2018-09-11T21:50:06.580Z,2.50
2018-09-11T21:55:11.638Z,2.97
2018-09-11T22:00:16.093Z,2.10
2018-09-11T22:05:20.020Z,2.20
2018-09-11T22:10:23.619Z,2.70
2018-09-11T22:15:27.262Z,2.77
2018-09-11T22:20:30.937Z,2.50
2018-09-11T22:25:44.944Z,2.63
2018-09-11T22:30:48.675Z,3.17
2018-09-11T22:35:52.232Z,3.13
2018-09-11T22:40:55.825Z,2.73
2018-09-11T22:45:59.698Z,2.90
2018-09-11T22:51:03.354Z,3.10
2018-09-11T22:56:07.098Z,2.93
2018-09-11T23:01:10.714Z,3.00
2018-09-11T23:06:14.387Z,3.67
2018-09-11T23:11:18.076Z,3.57
2018-09-11T23:16:21.687Z,2.97
2018-09-11T23:21:25.317Z,3.43
2018-09-11T23:26:29.137Z,3.73
2018-09-11T23:31:32.931Z,2.73
2018-09-11T23:36:36.651Z,3.20
2018-09-11T23:41:40.348Z,2.80
2018-09-11T23:46:44.110Z,3.03
2018-09-11T23:51:47.777Z,3.47
2018-09-11T23:56:51.453Z,3.27
